createdAt,value
2023-03-16T00:02:31.979Z,743.98
2023-03-16T00:05:41.760Z,532.12
2023-03-16T00:08:47.665Z,373.12
2023-03-16T00:11:54.216Z,692.77
2023-03-16T00:15:02.067Z,634.70
2023-03-16T00:18:08.832Z,705.49
2023-03-16T00:21:18.518Z,579.90
2023-03-16T00:24:25.274Z,496.33
2023-03-16T00:27:31.130Z,555.46
2023-03-16T00:30:37.933Z,473.49
2023-03-16T00:33:45.650Z,528.81
2023-03-16T00:36:55.355Z,508.50
2023-03-16T00:40:08.056Z,398.08
2023-03-16T00:43:18.969Z,293.73
2023-03-16T00:46:28.041Z,335.80
2023-03-16T00:49:35.654Z,497.32
2023-03-16T00:52:45.096Z,473.73
2023-03-16T00:55:53.564Z,449.17
2023-03-16T00:59:00.685Z,312.51
2023-03-16T01:02:09.718Z,395.26
2023-03-16T01:05:16.711Z,395.37
2023-03-16T01:08:28.091Z,341.71
2023-03-16T01:11:35.555Z,402.28
2023-03-16T01:14:45.936Z,329.79
2023-03-16T01:17:51.948Z,336.77
2023-03-16T01:20:58.692Z,310.26
2023-03-16T01:24:07.649Z,349.46
2023-03-16T01:27:15.319Z,388.43
2023-03-16T01:30:24.165Z,394.70
2023-03-16T01:33:32.223Z,394.46
2023-03-16T01:36:38.097Z,450.90
2023-03-16T01:39:49.246Z,326.16
2023-03-16T01:43:07.218Z,745.99
2023-03-16T01:46:24.105Z,377.20
2023-03-16T01:49:39.512Z,475.57
2023-03-16T01:52:46.368Z,466.43
2023-03-16T01:55:56.572Z,425.98
2023-03-16T01:59:13.994Z,481.41
2023-03-16T02:02:26.690Z,334.94
2023-03-16T02:05:44.678Z,235.11
2023-03-16T02:08:57.065Z,221.84
2023-03-16T02:12:09.682Z,228.27
2023-03-16T02:15:19.670Z,228.19
2023-03-16T02:18:26.705Z,224.61
2023-03-16T02:21:49.923Z,221.67
2023-03-16T02:24:57.981Z,222.65
2023-03-16T02:28:23.646Z,219.96
2023-03-16T02:31:34.346Z,215.69
2023-03-16T02:34:42.104Z,202.65
2023-03-16T02:37:49.051Z,199.00
2023-03-16T02:41:04.277Z,196.59
2023-03-16T02:44:20.625Z,205.73
2023-03-16T02:47:38.696Z,211.69
2023-03-16T02:50:50.343Z,247.05
2023-03-16T02:53:56.155Z,344.06
2023-03-16T02:57:06.575Z,377.23
2023-03-16T03:00:18.046Z,356.43
2023-03-16T03:03:34.464Z,437.76
2023-03-16T03:06:40.403Z,347.89
2023-03-16T03:09:47.280Z,307.21
2023-03-16T03:12:53.191Z,373.17
2023-03-16T03:16:03.418Z,432.09
2023-03-16T03:19:11.829Z,434.34
2023-03-16T03:22:19.771Z,388.24
2023-03-16T03:25:26.915Z,450.87
2023-03-16T03:28:34.839Z,440.76
2023-03-16T03:31:40.732Z,390.07
2023-03-16T03:34:50.023Z,347.56
2023-03-16T03:37:55.955Z,322.72
2023-03-16T03:41:02.807Z,365.02
2023-03-16T03:44:15.312Z,414.12
2023-03-16T03:47:22.626Z,514.99
2023-03-16T03:50:31.966Z,508.57
2023-03-16T03:54:07.532Z,616.28
2023-03-16T03:57:24.372Z,656.67
2023-03-16T04:00:31.239Z,650.13
2023-03-16T04:03:37.883Z,898.81
2023-03-16T04:06:48.219Z,706.58
2023-03-16T04:09:54.854Z,572.11
2023-03-16T04:13:06.406Z,571.29
2023-03-16T04:16:16.533Z,551.79
2023-03-16T04:19:26.046Z,494.62
2023-03-16T04:22:37.369Z,398.12
2023-03-16T04:25:43.357Z,326.15
2023-03-16T04:28:50.584Z,320.96
2023-03-16T04:31:58.573Z,300.06
2023-03-16T04:35:09.409Z,306.95
2023-03-16T04:38:29.527Z,294.37
2023-03-16T04:41:45.850Z,311.26
2023-03-16T04:44:56.967Z,296.78
2023-03-16T04:48:06.002Z,406.77
2023-03-16T04:51:12.013Z,384.61
2023-03-16T04:54:27.201Z,288.66
2023-03-16T04:57:33.205Z,292.37
2023-03-16T05:00:40.896Z,286.27
2023-03-16T05:03:57.060Z,288.33
2023-03-16T05:07:05.186Z,330.31
2023-03-16T05:10:22.125Z,311.78
2023-03-16T05:13:28.916Z,303.57
2023-03-16T05:16:37.740Z,308.69
2023-03-16T05:19:45.457Z,309.52
2023-03-16T05:22:54.007Z,310.48
2023-03-16T05:26:13.403Z,354.24
2023-03-16T05:29:19.852Z,340.02
2023-03-16T05:32:26.608Z,332.84
2023-03-16T05:35:32.830Z,341.81
2023-03-16T05:38:45.808Z,350.57
2023-03-16T05:42:01.970Z,348.67
2023-03-16T05:45:19.070Z,347.22
2023-03-16T05:48:37.836Z,329.12
2023-03-16T05:51:45.943Z,325.95
2023-03-16T05:54:52.753Z,311.79
2023-03-16T05:58:03.802Z,310.15
2023-03-16T06:01:13.530Z,298.44
2023-03-16T06:04:23.437Z,289.97
2023-03-16T06:07:32.602Z,292.53
2023-03-16T06:10:39.956Z,308.94
2023-03-16T06:13:48.437Z,313.96
2023-03-16T06:16:55.791Z,311.76
2023-03-16T06:20:02.035Z,280.86
2023-03-16T06:23:09.265Z,267.91
2023-03-16T06:26:16.052Z,280.58
2023-03-16T06:29:27.739Z,309.73
2023-03-16T06:32:34.838Z,279.62
2023-03-16T06:35:41.888Z,267.65
2023-03-16T06:38:56.053Z,243.12
2023-03-16T06:42:06.790Z,239.29
2023-03-16T06:45:16.817Z,239.16
2023-03-16T06:48:23.787Z,246.26
2023-03-16T06:51:30.300Z,265.84
2023-03-16T06:54:37.916Z,252.23
2023-03-16T06:57:45.295Z,239.88
2023-03-16T07:00:54.696Z,255.09
2023-03-16T07:04:01.979Z,256.68
2023-03-16T07:07:12.095Z,257.04
2023-03-16T07:10:21.074Z,263.20
2023-03-16T07:13:27.594Z,250.32
2023-03-16T07:16:36.564Z,221.98
2023-03-16T07:19:46.420Z,232.94
2023-03-16T07:22:53.255Z,222.09
2023-03-16T07:26:01.217Z,240.38
2023-03-16T07:29:07.868Z,235.10
2023-03-16T07:32:17.445Z,245.06
2023-03-16T07:35:26.698Z,246.42
2023-03-16T07:38:35.627Z,227.09
2023-03-16T07:41:45.564Z,245.79
2023-03-16T07:44:57.792Z,257.28
2023-03-16T07:48:08.817Z,225.77
2023-03-16T07:51:25.387Z,218.68
2023-03-16T07:54:31.704Z,217.70
2023-03-16T07:57:39.383Z,235.32
2023-03-16T08:00:45.417Z,247.88
2023-03-16T08:03:54.649Z,199.82
2023-03-16T08:07:02.334Z,200.01
2023-03-16T08:10:23.237Z,184.08
2023-03-16T08:13:35.792Z,179.64
2023-03-16T08:16:43.802Z,187.37
2023-03-16T08:19:52.340Z,211.64
2023-03-16T08:23:00.575Z,206.53
2023-03-16T08:26:13.269Z,193.72
2023-03-16T08:29:19.898Z,186.96
2023-03-16T08:32:27.033Z,177.94
2023-03-16T08:35:36.409Z,201.10
2023-03-16T08:38:44.136Z,210.36
2023-03-16T08:41:52.361Z,225.66
2023-03-16T08:45:12.286Z,234.58
2023-03-16T08:48:22.307Z,215.32
2023-03-16T08:51:32.779Z,191.10
2023-03-16T08:54:39.451Z,186.01
2023-03-16T08:57:46.537Z,179.95
2023-03-16T09:00:53.099Z,175.46
2023-03-16T09:04:00.709Z,178.62
2023-03-16T09:07:10.564Z,179.55
2023-03-16T09:10:19.119Z,193.30
2023-03-16T09:13:26.138Z,172.31
2023-03-16T09:16:34.641Z,171.95
2023-03-16T09:19:52.188Z,177.87
2023-03-16T09:23:02.135Z,176.64
2023-03-16T09:26:10.731Z,168.91
2023-03-16T09:29:16.796Z,164.61
2023-03-16T09:32:26.482Z,162.72
2023-03-16T09:35:34.357Z,157.35
2023-03-16T09:38:45.298Z,160.16
2023-03-16T09:42:06.063Z,151.47
2023-03-16T09:45:29.271Z,129.33
2023-03-16T09:48:41.332Z,124.85
2023-03-16T09:52:00.726Z,111.66
2023-03-16T09:55:29.207Z,98.08
2023-03-16T09:58:36.815Z,98.00
2023-03-16T10:02:04.553Z,70.05
2023-03-16T10:05:17.264Z,71.80
2023-03-16T10:08:29.253Z,92.06
2023-03-16T10:11:47.129Z,85.35
2023-03-16T10:15:02.028Z,70.80
2023-03-16T10:18:19.283Z,69.40
2023-03-16T10:21:27.472Z,62.27
2023-03-16T10:24:57.017Z,62.11
2023-03-16T10:28:05.689Z,50.16
2023-03-16T10:31:18.258Z,46.97
2023-03-16T10:34:25.007Z,52.28
2023-03-16T10:37:34.282Z,55.67
2023-03-16T10:40:43.034Z,50.46
2023-03-16T10:43:57.524Z,45.11
2023-03-16T10:47:08.469Z,47.48
2023-03-16T10:50:21.220Z,47.15
2023-03-16T10:53:33.138Z,44.13
2023-03-16T10:56:40.482Z,49.07
2023-03-16T10:59:52.964Z,42.53
2023-03-16T11:03:02.662Z,50.17
2023-03-16T11:06:20.736Z,55.58
2023-03-16T11:09:34.235Z,46.71
2023-03-16T11:12:40.082Z,42.07
2023-03-16T11:15:58.798Z,43.73
2023-03-16T11:19:20.905Z,44.27
2023-03-16T11:22:30.361Z,43.26
2023-03-16T11:25:48.157Z,37.44
2023-03-16T11:29:09.480Z,34.24
2023-03-16T11:32:28.918Z,34.22
2023-03-16T11:35:59.187Z,36.70
2023-03-16T11:39:26.839Z,35.57
2023-03-16T11:42:41.777Z,32.75
2023-03-16T11:46:05.710Z,35.82
2023-03-16T11:49:58.365Z,31.09
2023-03-16T11:53:21.373Z,43.42
2023-03-16T11:56:37.701Z,57.47
2023-03-16T12:00:10.708Z,40.57
2023-03-16T12:04:02.399Z,32.58
2023-03-16T12:07:39.718Z,40.33
2023-03-16T12:10:58.750Z,36.91
2023-03-16T12:14:19.820Z,31.63
2023-03-16T12:17:35.289Z,28.21
2023-03-16T12:20:53.097Z,28.02
2023-03-16T12:24:07.335Z,30.36
2023-03-16T12:27:21.384Z,31.35
2023-03-16T12:30:58.292Z,32.89
2023-03-16T12:34:26.054Z,33.51
2023-03-16T12:37:48.216Z,40.27
2023-03-16T12:41:19.991Z,33.47
2023-03-16T12:44:40.028Z,34.29
2023-03-16T12:48:00.968Z,33.22
2023-03-16T12:51:13.439Z,40.54
2023-03-16T12:54:25.437Z,39.56
2023-03-16T12:57:37.597Z,42.61
2023-03-16T13:00:45.431Z,46.40
2023-03-16T13:04:04.222Z,41.91
2023-03-16T13:07:19.478Z,51.15
2023-03-16T13:10:27.005Z,269.76
2023-03-16T13:13:37.421Z,179.95
2023-03-16T13:16:45.671Z,87.92
2023-03-16T13:20:06.894Z,38.76
2023-03-16T13:23:30.316Z,46.25
2023-03-16T13:26:45.541Z,46.37
2023-03-16T13:30:05.474Z,36.89
2023-03-16T13:33:25.827Z,37.60
2023-03-16T13:36:35.095Z,36.41
2023-03-16T13:39:40.965Z,35.75
2023-03-16T13:42:53.312Z,36.09
2023-03-16T13:46:03.692Z,38.10
2023-03-16T13:49:10.382Z,42.93
2023-03-16T13:52:28.924Z,42.64
2023-03-16T13:55:41.750Z,40.05
2023-03-16T13:58:52.867Z,36.66
2023-03-16T14:02:04.604Z,28.77
2023-03-16T14:05:15.908Z,34.05
2023-03-16T14:08:26.964Z,36.51
2023-03-16T14:11:33.742Z,45.65
2023-03-16T14:14:43.901Z,33.96
2023-03-16T14:17:52.600Z,33.60
2023-03-16T14:21:00.339Z,33.99
2023-03-16T14:24:09.604Z,39.90
2023-03-16T14:27:33.003Z,36.81
2023-03-16T14:30:38.855Z,31.85
2023-03-16T14:33:48.331Z,25.80
2023-03-16T14:36:54.290Z,35.99
2023-03-16T14:40:09.186Z,44.35
2023-03-16T14:43:15.825Z,34.69
2023-03-16T14:46:33.629Z,27.16
2023-03-16T14:49:43.609Z,28.41
2023-03-16T14:52:51.989Z,28.49
2023-03-16T14:56:01.313Z,30.02
2023-03-16T14:59:09.169Z,28.22
2023-03-16T15:02:23.155Z,33.78
2023-03-16T15:05:40.740Z,36.20
2023-03-16T15:08:51.073Z,39.81
2023-03-16T15:11:58.325Z,38.08
2023-03-16T15:15:19.599Z,46.42
2023-03-16T15:18:26.180Z,52.98
2023-03-16T15:21:35.141Z,51.27
2023-03-16T15:24:42.652Z,50.60
2023-03-16T15:27:49.287Z,316.76
2023-03-16T15:30:59.726Z,148.57
2023-03-16T15:34:07.298Z,178.79
2023-03-16T15:37:26.324Z,366.31
2023-03-16T15:40:33.911Z,184.28
2023-03-16T15:43:40.610Z,960.44
2023-03-16T15:46:46.753Z,1449.51
2023-03-16T15:49:53.301Z,1451.42
2023-03-16T15:53:13.251Z,75.14
2023-03-16T15:56:30.096Z,85.40
2023-03-16T15:59:40.166Z,53.20
2023-03-16T16:02:46.748Z,58.23
2023-03-16T16:05:53.402Z,57.95
2023-03-16T16:09:02.910Z,54.72
2023-03-16T16:12:13.057Z,65.72
2023-03-16T16:15:25.808Z,69.80
2023-03-16T16:18:37.580Z,74.01
2023-03-16T16:21:44.909Z,81.85
2023-03-16T16:24:53.390Z,110.30
2023-03-16T16:28:00.452Z,105.18
2023-03-16T16:31:17.158Z,76.78
2023-03-16T16:34:27.314Z,65.77
2023-03-16T16:37:33.449Z,77.92
2023-03-16T16:40:46.303Z,87.42
2023-03-16T16:43:56.544Z,116.11
2023-03-16T16:47:03.649Z,92.63
2023-03-16T16:50:18.757Z,88.56
2023-03-16T16:53:25.691Z,85.14
2023-03-16T16:56:39.027Z,78.99
2023-03-16T16:59:47.203Z,84.34
2023-03-16T17:02:58.903Z,85.58
2023-03-16T17:06:05.514Z,95.97
2023-03-16T17:09:12.508Z,117.83
2023-03-16T17:12:26.324Z,128.62
2023-03-16T17:15:35.224Z,147.65
2023-03-16T17:18:42.349Z,172.72
2023-03-16T17:21:49.243Z,189.79
2023-03-16T17:24:56.434Z,251.95
2023-03-16T17:28:05.812Z,267.96
2023-03-16T17:31:15.703Z,438.15
2023-03-16T17:34:26.058Z,243.93
2023-03-16T17:37:32.704Z,221.83
2023-03-16T17:40:38.805Z,211.65
2023-03-16T17:43:51.497Z,204.34
2023-03-16T17:46:57.754Z,247.57
2023-03-16T17:50:04.549Z,189.03
2023-03-16T17:53:10.334Z,165.67
2023-03-16T17:56:27.223Z,178.25
2023-03-16T17:59:36.677Z,183.55
2023-03-16T18:02:56.769Z,254.63
2023-03-16T18:06:02.729Z,212.02
2023-03-16T18:09:09.856Z,271.54
2023-03-16T18:12:15.753Z,228.50
2023-03-16T18:15:31.286Z,255.86
2023-03-16T18:18:41.931Z,259.07
2023-03-16T18:21:48.578Z,295.82
2023-03-16T18:24:58.114Z,325.60
2023-03-16T18:28:05.394Z,315.30
2023-03-16T18:31:24.340Z,464.17
2023-03-16T18:34:37.793Z,530.85
2023-03-16T18:37:44.914Z,362.61
2023-03-16T18:40:51.617Z,335.66
2023-03-16T18:44:01.156Z,342.88
2023-03-16T18:47:22.167Z,351.85
2023-03-16T18:50:32.008Z,341.10
2023-03-16T18:53:38.998Z,360.49
2023-03-16T18:56:44.753Z,336.29
2023-03-16T18:59:52.412Z,359.46
2023-03-16T19:03:09.350Z,365.15
2023-03-16T19:06:21.494Z,407.67
2023-03-16T19:09:32.223Z,430.34
2023-03-16T19:12:39.242Z,429.23
2023-03-16T19:15:45.252Z,400.76
2023-03-16T19:18:54.608Z,441.55
2023-03-16T19:22:13.102Z,438.01
2023-03-16T19:25:48.612Z,405.19
2023-03-16T19:28:56.477Z,433.58
2023-03-16T19:32:04.165Z,475.43
2023-03-16T19:35:21.098Z,433.41
2023-03-16T19:38:31.873Z,409.38
2023-03-16T19:41:44.079Z,390.83
2023-03-16T19:44:53.928Z,390.53
2023-03-16T19:47:59.862Z,418.94
2023-03-16T19:51:09.394Z,383.00
2023-03-16T19:54:25.918Z,382.10
2023-03-16T19:57:34.081Z,374.19
2023-03-16T20:00:43.378Z,405.00
2023-03-16T20:03:54.793Z,417.47
2023-03-16T20:07:03.324Z,446.66
2023-03-16T20:10:11.911Z,427.47
2023-03-16T20:13:31.890Z,450.38
2023-03-16T20:16:39.556Z,502.64
2023-03-16T20:19:48.639Z,498.60
2023-03-16T20:23:02.503Z,488.88
2023-03-16T20:26:17.905Z,457.00
2023-03-16T20:29:32.894Z,456.08
2023-03-16T20:32:40.120Z,467.61
2023-03-16T20:35:47.529Z,588.02
2023-03-16T20:38:56.170Z,569.78
2023-03-16T20:42:16.768Z,595.72
2023-03-16T20:45:33.797Z,640.83
2023-03-16T20:48:43.384Z,645.43
2023-03-16T20:51:49.692Z,802.48
2023-03-16T20:54:58.915Z,803.73
2023-03-16T20:58:05.718Z,639.36
2023-03-16T21:01:18.899Z,621.20
2023-03-16T21:04:31.258Z,644.99
2023-03-16T21:07:37.949Z,614.98
2023-03-16T21:10:49.438Z,616.57
2023-03-16T21:13:57.571Z,613.80
2023-03-16T21:17:06.522Z,596.35
2023-03-16T21:20:20.744Z,614.43
2023-03-16T21:23:27.644Z,647.89
2023-03-16T21:26:37.967Z,747.95
2023-03-16T21:29:44.016Z,708.86
2023-03-16T21:32:50.771Z,704.34
2023-03-16T21:35:57.039Z,726.66
2023-03-16T21:39:04.113Z,762.40
2023-03-16T21:42:12.828Z,792.78
2023-03-16T21:45:20.418Z,828.69
2023-03-16T21:48:32.597Z,852.02
2023-03-16T21:51:40.259Z,808.86
2023-03-16T21:54:47.738Z,812.06
2023-03-16T21:58:02.950Z,828.98
2023-03-16T22:01:09.712Z,835.33
2023-03-16T22:04:20.778Z,824.41
2023-03-16T22:07:28.469Z,839.28
2023-03-16T22:10:35.513Z,806.63
2023-03-16T22:13:44.442Z,758.98
2023-03-16T22:16:52.154Z,760.67
2023-03-16T22:19:58.209Z,747.15
2023-03-16T22:23:07.899Z,747.11
2023-03-16T22:26:22.638Z,731.88
2023-03-16T22:29:33.954Z,721.27
2023-03-16T22:32:39.911Z,719.60
2023-03-16T22:35:47.475Z,722.09
2023-03-16T22:39:02.386Z,777.60
2023-03-16T22:42:31.206Z,764.72
2023-03-16T22:45:39.968Z,716.27
2023-03-16T22:48:46.627Z,716.95
2023-03-16T22:51:58.408Z,702.78
2023-03-16T22:55:10.129Z,709.36
2023-03-16T22:58:30.921Z,728.48
2023-03-16T23:01:45.049Z,734.57
2023-03-16T23:04:51.008Z,758.11
2023-03-16T23:07:58.367Z,720.26
2023-03-16T23:11:04.445Z,692.02
2023-03-16T23:14:17.621Z,694.68
2023-03-16T23:17:26.082Z,703.81
2023-03-16T23:20:35.276Z,677.72
2023-03-16T23:23:44.372Z,644.13
2023-03-16T23:26:54.123Z,628.91
2023-03-16T23:30:00.044Z,665.60
2023-03-16T23:33:09.364Z,721.48
2023-03-16T23:36:18.559Z,663.32
2023-03-16T23:39:25.861Z,674.29
2023-03-16T23:42:31.793Z,707.22
2023-03-16T23:45:44.625Z,655.36
2023-03-16T23:48:58.341Z,635.99
2023-03-16T23:52:05.548Z,635.28
2023-03-16T23:55:16.365Z,647.35
2023-03-16T23:58:23.064Z,671.67
